Weather at Sunspot Airport

Public forecast

Using degrees Fahrenheit for public forecast. Weather courtesy of forecast.io.

Closest aviation weather report (METAR) to Sunspot Airport

Closest report is Alamogordo White Sands Regional Airport, 9.1 nm (16.8 km) WNW. Retrieved 2022/01/22 20:35 UTC (17 minutes ago):

KALM 222035Z AUTO 32006KT 10SM CLR 11/M05 A3018 RMK AO2

Closest aviation forecast (TAF) to Sunspot Airport

Forecast is more than 12 hours old.

Closest forecast is Holloman Air Force Base, 14.9 nm (27.6 km) WNW. Retrieved 2022-01-22 01:09 UTC (20 hours ago):

TAF KHMN 220100Z 2201/2307 VRB06KT 9999 FEW090 QNH3005INS TX13/2222Z TNM03/2212Z